sensor_id;sensor_type;location;lat;lon;timestamp;pressure;altitude;pressure_sealevel;temperature;humidity
55679;BME280;41573;51.446;-2.018;2022-09-25T00:00:45;101216.25;;;10.24;100.00
55679;BME280;41573;51.446;-2.018;2022-09-25T00:03:12;101209.19;;;10.23;100.00
55679;BME280;41573;51.446;-2.018;2022-09-25T00:05:39;101220.00;;;10.20;100.00
55679;BME280;41573;51.446;-2.018;2022-09-25T00:08:06;101218.41;;;10.15;100.00
55679;BME280;41573;51.446;-2.018;2022-09-25T00:10:32;101226.63;;;10.11;100.00
55679;BME280;41573;51.446;-2.018;2022-09-25T00:12:57;101231.69;;;9.98;100.00
55679;BME280;41573;51.446;-2.018;2022-09-25T00:15:23;101238.56;;;9.83;100.00
55679;BME280;41573;51.446;-2.018;2022-09-25T00:17:49;101230.97;;;9.75;100.00
55679;BME280;41573;51.446;-2.018;2022-09-25T00:20:15;101229.53;;;9.68;100.00
55679;BME280;41573;51.446;-2.018;2022-09-25T00:22:41;101231.53;;;9.63;100.00
55679;BME280;41573;51.446;-2.018;2022-09-25T00:25:10;101237.13;;;9.57;100.00
55679;BME280;41573;51.446;-2.018;2022-09-25T00:27:39;101232.66;;;9.57;100.00
55679;BME280;41573;51.446;-2.018;2022-09-25T00:30:05;101240.56;;;9.59;100.00
55679;BME280;41573;51.446;-2.018;2022-09-25T00:32:31;101234.31;;;9.60;100.00
55679;BME280;41573;51.446;-2.018;2022-09-25T00:34:56;101242.16;;;9.63;100.00
55679;BME280;41573;51.446;-2.018;2022-09-25T00:37:21;101244.81;;;9.63;100.00
55679;BME280;41573;51.446;-2.018;2022-09-25T00:39:47;101239.44;;;9.64;100.00
55679;BME280;41573;51.446;-2.018;2022-09-25T00:42:12;101229.63;;;9.65;100.00
55679;BME280;41573;51.446;-2.018;2022-09-25T00:44:57;101236.69;;;9.66;100.00
55679;BME280;41573;51.446;-2.018;2022-09-25T00:47:36;101235.78;;;9.67;100.00
55679;BME280;41573;51.446;-2.018;2022-09-25T00:52:38;101236.25;;;9.56;100.00
55679;BME280;41573;51.446;-2.018;2022-09-25T00:55:06;101233.22;;;9.45;100.00
55679;BME280;41573;51.446;-2.018;2022-09-25T00:57:34;101241.41;;;9.40;100.00
55679;BME280;41573;51.446;-2.018;2022-09-25T01:00:08;101239.03;;;9.34;100.00
55679;BME280;41573;51.446;-2.018;2022-09-25T01:02:38;101235.63;;;9.30;100.00
55679;BME280;41573;51.446;-2.018;2022-09-25T01:05:13;101241.81;;;9.31;100.00
55679;BME280;41573;51.446;-2.018;2022-09-25T01:07:41;101239.16;;;9.31;100.00
55679;BME280;41573;51.446;-2.018;2022-09-25T01:10:09;101231.31;;;9.28;100.00
55679;BME280;41573;51.446;-2.018;2022-09-25T01:12:59;101231.38;;;9.26;100.00
55679;BME280;41573;51.446;-2.018;2022-09-25T01:32:28;101232.72;;;9.16;100.00
55679;BME280;41573;51.446;-2.018;2022-09-25T01:37:25;101232.13;;;9.09;100.00
55679;BME280;41573;51.446;-2.018;2022-09-25T01:42:41;101226.94;;;9.06;100.00
55679;BME280;41573;51.446;-2.018;2022-09-25T01:45:12;101227.38;;;8.97;100.00
55679;BME280;41573;51.446;-2.018;2022-09-25T01:47:42;101214.41;;;8.89;100.00
55679;BME280;41573;51.446;-2.018;2022-09-25T01:50:18;101221.75;;;8.83;100.00
55679;BME280;41573;51.446;-2.018;2022-09-25T01:52:49;101217.63;;;8.75;100.00
55679;BME280;41573;51.446;-2.018;2022-09-25T01:55:26;101209.25;;;8.64;100.00
55679;BME280;41573;51.446;-2.018;2022-09-25T01:58:00;101222.00;;;8.56;100.00
55679;BME280;41573;51.446;-2.018;2022-09-25T02:00:27;101219.78;;;8.45;100.00
55679;BME280;41573;51.446;-2.018;2022-09-25T02:03:00;101218.22;;;8.39;100.00
55679;BME280;41573;51.446;-2.018;2022-09-25T02:05:55;101214.88;;;8.34;100.00
55679;BME280;41573;51.446;-2.018;2022-09-25T02:08:26;101203.75;;;8.26;100.00
55679;BME280;41573;51.446;-2.018;2022-09-25T02:10:56;101220.69;;;8.22;100.00
55679;BME280;41573;51.446;-2.018;2022-09-25T02:13:29;101222.72;;;8.15;100.00
55679;BME280;41573;51.446;-2.018;2022-09-25T02:16:02;101228.16;;;8.12;100.00
55679;BME280;41573;51.446;-2.018;2022-09-25T02:18:29;101220.75;;;7.98;100.00
55679;BME280;41573;51.446;-2.018;2022-09-25T02:21:43;101221.84;;;7.92;100.00
55679;BME280;41573;51.446;-2.018;2022-09-25T02:24:21;101221.13;;;7.89;100.00
55679;BME280;41573;51.446;-2.018;2022-09-25T02:26:49;101221.16;;;7.87;100.00
55679;BME280;41573;51.446;-2.018;2022-09-25T02:29:16;101217.53;;;7.90;100.00
55679;BME280;41573;51.446;-2.018;2022-09-25T02:31:56;101227.91;;;7.96;100.00
55679;BME280;41573;51.446;-2.018;2022-09-25T02:34:24;101230.50;;;7.98;100.00
55679;BME280;41573;51.446;-2.018;2022-09-25T02:36:49;101222.47;;;7.99;100.00
55679;BME280;41573;51.446;-2.018;2022-09-25T02:39:18;101236.53;;;8.01;100.00
55679;BME280;41573;51.446;-2.018;2022-09-25T02:49:32;101243.47;;;7.82;100.00
55679;BME280;41573;51.446;-2.018;2022-09-25T02:52:09;101241.91;;;7.76;100.00
55679;BME280;41573;51.446;-2.018;2022-09-25T02:59:46;101245.44;;;7.76;100.00
55679;BME280;41573;51.446;-2.018;2022-09-25T03:02:15;101244.63;;;7.74;100.00
55679;BME280;41573;51.446;-2.018;2022-09-25T03:04:42;101238.47;;;7.74;100.00
55679;BME280;41573;51.446;-2.018;2022-09-25T03:07:10;101250.75;;;7.76;100.00
55679;BME280;41573;51.446;-2.018;2022-09-25T03:09:39;101246.25;;;7.79;100.00
55679;BME280;41573;51.446;-2.018;2022-09-25T03:12:06;101249.72;;;7.81;100.00
55679;BME280;41573;51.446;-2.018;2022-09-25T03:14:31;101252.19;;;7.85;100.00
55679;BME280;41573;51.446;-2.018;2022-09-25T03:17:00;101255.13;;;7.78;100.00
55679;BME280;41573;51.446;-2.018;2022-09-25T03:19:28;101251.78;;;7.72;100.00
55679;BME280;41573;51.446;-2.018;2022-09-25T03:21:53;101238.47;;;7.74;100.00
55679;BME280;41573;51.446;-2.018;2022-09-25T03:24:19;101242.91;;;7.73;100.00
55679;BME280;41573;51.446;-2.018;2022-09-25T03:26:45;101237.56;;;7.75;100.00
55679;BME280;41573;51.446;-2.018;2022-09-25T03:29:12;101239.50;;;7.70;100.00
55679;BME280;41573;51.446;-2.018;2022-09-25T03:31:39;101237.75;;;7.70;100.00
55679;BME280;41573;51.446;-2.018;2022-09-25T03:34:07;101238.59;;;7.71;100.00
55679;BME280;41573;51.446;-2.018;2022-09-25T03:36:33;101236.72;;;7.73;100.00
55679;BME280;41573;51.446;-2.018;2022-09-25T03:38:59;101241.06;;;7.75;100.00
55679;BME280;41573;51.446;-2.018;2022-09-25T03:41:27;101239.22;;;7.78;100.00
55679;BME280;41573;51.446;-2.018;2022-09-25T03:43:53;101239.22;;;7.78;100.00
55679;BME280;41573;51.446;-2.018;2022-09-25T03:46:23;101241.06;;;7.75;100.00
55679;BME280;41573;51.446;-2.018;2022-09-25T03:48:49;101241.97;;;7.74;100.00
55679;BME280;41573;51.446;-2.018;2022-09-25T03:51:16;101241.91;;;7.76;100.00
55679;BME280;41573;51.446;-2.018;2022-09-25T03:53:43;101246.41;;;7.74;100.00
55679;BME280;41573;51.446;-2.018;2022-09-25T03:56:11;101234.50;;;7.62;100.00
55679;BME280;41573;51.446;-2.018;2022-09-25T03:58:38;101239.16;;;7.55;100.00
55679;BME280;41573;51.446;-2.018;2022-09-25T04:01:03;101234.94;;;7.50;100.00
55679;BME280;41573;51.446;-2.018;2022-09-25T04:03:30;101240.38;;;7.47;100.00
55679;BME280;41573;51.446;-2.018;2022-09-25T04:05:58;101245.66;;;7.47;100.00
55679;BME280;41573;51.446;-2.018;2022-09-25T04:08:25;101236.88;;;7.45;100.00
55679;BME280;41573;51.446;-2.018;2022-09-25T04:10:55;101238.63;;;7.46;100.00
55679;BME280;41573;51.446;-2.018;2022-09-25T04:13:23;101234.19;;;7.46;100.00
55679;BME280;41573;51.446;-2.018;2022-09-25T04:15:49;101238.69;;;7.44;100.00
55679;BME280;41573;51.446;-2.018;2022-09-25T04:18:15;101238.09;;;7.36;100.00
55679;BME280;41573;51.446;-2.018;2022-09-25T04:20:41;101235.75;;;7.28;100.00
55679;BME280;41573;51.446;-2.018;2022-09-25T04:23:06;101227.19;;;7.20;100.00
55679;BME280;41573;51.446;-2.018;2022-09-25T04:25:32;101236.28;;;7.13;100.00
55679;BME280;41573;51.446;-2.018;2022-09-25T04:27:57;101232.00;;;7.08;100.00
55679;BME280;41573;51.446;-2.018;2022-09-25T04:30:28;101223.34;;;7.03;100.00
55679;BME280;41573;51.446;-2.018;2022-09-25T04:32:54;101235.25;;;6.92;100.00
55679;BME280;41573;51.446;-2.018;2022-09-25T04:35:38;101236.38;;;6.84;100.00
55679;BME280;41573;51.446;-2.018;2022-09-25T04:38:04;101231.38;;;6.75;100.00
55679;BME280;41573;51.446;-2.018;2022-09-25T04:40:31;101236.84;;;6.70;100.00
55679;BME280;41573;51.446;-2.018;2022-09-25T04:42:58;101239.69;;;6.64;100.00
55679;BME280;41573;51.446;-2.018;2022-09-25T04:45:25;101233.38;;;6.68;100.00
55679;BME280;41573;51.446;-2.018;2022-09-25T04:47:55;101233.34;;;6.70;100.00
55679;BME280;41573;51.446;-2.018;2022-09-25T04:50:20;101237.97;;;6.63;100.00
55679;BME280;41573;51.446;-2.018;2022-09-25T04:52:46;101235.59;;;6.55;100.00
55679;BME280;41573;51.446;-2.018;2022-09-25T04:55:12;101229.03;;;6.39;100.00
55679;BME280;41573;51.446;-2.018;2022-09-25T04:57:37;101217.00;;;6.30;100.00
55679;BME280;41573;51.446;-2.018;2022-09-25T05:00:04;101230.41;;;6.24;100.00
55679;BME280;41573;51.446;-2.018;2022-09-25T05:02:30;101231.53;;;6.17;100.00
55679;BME280;41573;51.446;-2.018;2022-09-25T05:04:55;101226.47;;;6.09;100.00
55679;BME280;41573;51.446;-2.018;2022-09-25T05:07:20;101232.72;;;6.07;100.00
55679;BME280;41573;51.446;-2.018;2022-09-25T05:09:46;101226.66;;;6.03;100.00
55679;BME280;41573;51.446;-2.018;2022-09-25T05:12:11;101234.50;;;6.06;100.00
55679;BME280;41573;51.446;-2.018;2022-09-25T05:14:37;101235.34;;;6.07;100.00
55679;BME280;41573;51.446;-2.018;2022-09-25T05:17:05;101234.44;;;6.08;100.00
55679;BME280;41573;51.446;-2.018;2022-09-25T05:19:31;101244.28;;;6.02;100.00
55679;BME280;41573;51.446;-2.018;2022-09-25T05:21:56;101237.28;;;6.01;100.00
55679;BME280;41573;51.446;-2.018;2022-09-25T05:24:21;101231.16;;;5.99;100.00
55679;BME280;41573;51.446;-2.018;2022-09-25T05:26:47;101235.78;;;5.93;100.00
55679;BME280;41573;51.446;-2.018;2022-09-25T05:29:12;101240.38;;;5.86;100.00
55679;BME280;41573;51.446;-2.018;2022-09-25T05:31:37;101244.88;;;5.82;100.00
55679;BME280;41573;51.446;-2.018;2022-09-25T05:34:03;101239.69;;;5.79;100.00
55679;BME280;41573;51.446;-2.018;2022-09-25T05:36:28;101240.63;;;5.77;100.00
55679;BME280;41573;51.446;-2.018;2022-09-25T05:38:55;101232.66;;;5.78;100.00
55679;BME280;41573;51.446;-2.018;2022-09-25T05:41:20;101238.91;;;5.76;100.00
55679;BME280;41573;51.446;-2.018;2022-09-25T05:43:45;101235.44;;;5.74;100.00
55679;BME280;41573;51.446;-2.018;2022-09-25T05:46:14;101245.31;;;5.67;100.00
55679;BME280;41573;51.446;-2.018;2022-09-25T05:48:40;101232.16;;;5.65;100.00
55679;BME280;41573;51.446;-2.018;2022-09-25T05:51:06;101235.63;;;5.67;100.00
55679;BME280;41573;51.446;-2.018;2022-09-25T05:53:32;101225.91;;;5.68;100.00
55679;BME280;41573;51.446;-2.018;2022-09-25T05:55:59;101226.72;;;5.72;100.00
55679;BME280;41573;51.446;-2.018;2022-09-25T05:58:27;101235.44;;;5.74;100.00
55679;BME280;41573;51.446;-2.018;2022-09-25T06:00:53;101235.34;;;5.77;100.00
55679;BME280;41573;51.446;-2.018;2022-09-25T06:03:19;101243.31;;;5.75;100.00
55679;BME280;41573;51.446;-2.018;2022-09-25T06:05:45;101242.13;;;5.56;100.00
55679;BME280;41573;51.446;-2.018;2022-09-25T06:08:11;101243.91;;;5.24;100.00
55679;BME280;41573;51.446;-2.018;2022-09-25T06:10:38;101236.13;;;5.19;100.00
55679;BME280;41573;51.446;-2.018;2022-09-25T06:13:03;101244.50;;;5.02;100.00
55679;BME280;41573;51.446;-2.018;2022-09-25T06:15:33;101249.00;;;4.97;100.00
55679;BME280;41573;51.446;-2.018;2022-09-25T06:18:04;101244.69;;;4.94;100.00
55679;BME280;41573;51.446;-2.018;2022-09-25T06:20:30;101243.03;;;4.90;100.00
55679;BME280;41573;51.446;-2.018;2022-09-25T06:22:57;101241.13;;;4.95;100.00
55679;BME280;41573;51.446;-2.018;2022-09-25T06:25:24;101255.00;;;5.04;100.00
55679;BME280;41573;51.446;-2.018;2022-09-25T06:27:55;101253.13;;;5.07;100.00
55679;BME280;41573;51.446;-2.018;2022-09-25T06:30:22;101257.66;;;5.04;100.00
55679;BME280;41573;51.446;-2.018;2022-09-25T06:32:58;101261.22;;;5.01;100.00
55679;BME280;41573;51.446;-2.018;2022-09-25T06:35:24;101255.91;;;5.03;100.00
55679;BME280;41573;51.446;-2.018;2022-09-25T06:37:50;101246.19;;;5.05;100.00
55679;BME280;41573;51.446;-2.018;2022-09-25T06:40:16;101253.94;;;5.11;100.00
55679;BME280;41573;51.446;-2.018;2022-09-25T06:42:41;101245.03;;;5.15;100.00
55679;BME280;41573;51.446;-2.018;2022-09-25T06:45:07;101252.00;;;5.17;100.00
55679;BME280;41573;51.446;-2.018;2022-09-25T06:47:34;101253.75;;;5.17;100.00
55679;BME280;41573;51.446;-2.018;2022-09-25T06:50:00;101244.28;;;5.10;100.00
55679;BME280;41573;51.446;-2.018;2022-09-25T06:52:25;101236.22;;;5.16;100.00
55679;BME280;41573;51.446;-2.018;2022-09-25T06:54:51;101244.03;;;5.19;100.00
55679;BME280;41573;51.446;-2.018;2022-09-25T06:57:16;101235.97;;;5.24;100.00
55679;BME280;41573;51.446;-2.018;2022-09-25T06:59:41;101247.34;;;5.27;100.00
55679;BME280;41573;51.446;-2.018;2022-09-25T07:02:07;101235.75;;;5.31;100.00
55679;BME280;41573;51.446;-2.018;2022-09-25T07:04:52;101237.38;;;5.37;100.00
55679;BME280;41573;51.446;-2.018;2022-09-25T07:07:17;101243.53;;;5.38;100.00
55679;BME280;41573;51.446;-2.018;2022-09-25T07:09:45;101240.69;;;5.44;100.00
55679;BME280;41573;51.446;-2.018;2022-09-25T07:12:13;101236.25;;;5.46;100.00
55679;BME280;41573;51.446;-2.018;2022-09-25T07:14:39;101239.75;;;5.46;100.00
55679;BME280;41573;51.446;-2.018;2022-09-25T07:17:08;101245.00;;;5.48;100.00
55679;BME280;41573;51.446;-2.018;2022-09-25T07:19:33;101244.91;;;5.51;100.00
55679;BME280;41573;51.446;-2.018;2022-09-25T07:21:58;101238.44;;;5.61;100.00
55679;BME280;41573;51.446;-2.018;2022-09-25T07:24:24;101231.16;;;5.69;100.00
55679;BME280;41573;51.446;-2.018;2022-09-25T07:26:50;101230.69;;;5.85;100.00
55679;BME280;41573;51.446;-2.018;2022-09-25T07:29:17;101228.59;;;5.96;100.00
55679;BME280;41573;51.446;-2.018;2022-09-25T07:31:42;101223.66;;;6.14;100.00
55679;BME280;41573;51.446;-2.018;2022-09-25T07:34:08;101231.97;;;6.31;100.00
55679;BME280;41573;51.446;-2.018;2022-09-25T07:36:38;101227.03;;;6.47;100.00
55679;BME280;41573;51.446;-2.018;2022-09-25T07:39:04;101216.00;;;6.61;100.00
55679;BME280;41573;51.446;-2.018;2022-09-25T07:41:29;101213.13;;;6.67;100.00
55679;BME280;41573;51.446;-2.018;2022-09-25T07:43:56;101216.16;;;6.82;100.00
55679;BME280;41573;51.446;-2.018;2022-09-25T07:46:23;101223.47;;;7.00;100.00
55679;BME280;41573;51.446;-2.018;2022-09-25T07:48:49;101230.88;;;7.16;100.00
55679;BME280;41573;51.446;-2.018;2022-09-25T07:51:15;101232.19;;;7.29;100.00
55679;BME280;41573;51.446;-2.018;2022-09-25T07:53:41;101237.06;;;7.40;100.00
55679;BME280;41573;51.446;-2.018;2022-09-25T07:56:08;101242.00;;;7.51;100.00
55679;BME280;41573;51.446;-2.018;2022-09-25T07:58:35;101236.44;;;7.57;100.00
55679;BME280;41573;51.446;-2.018;2022-09-25T08:01:02;101247.47;;;7.70;100.00
55679;BME280;41573;51.446;-2.018;2022-09-25T08:03:27;101240.81;;;7.82;100.00
55679;BME280;41573;51.446;-2.018;2022-09-25T08:06:07;101245.44;;;8.00;100.00
55679;BME280;41573;51.446;-2.018;2022-09-25T08:08:34;101252.66;;;8.19;100.00
55679;BME280;41573;51.446;-2.018;2022-09-25T08:11:04;101253.97;;;8.31;100.00
55679;BME280;41573;51.446;-2.018;2022-09-25T08:13:34;101250.66;;;8.48;100.00
55679;BME280;41573;51.446;-2.018;2022-09-25T08:16:04;101249.09;;;8.64;100.00
55679;BME280;41573;51.446;-2.018;2022-09-25T08:18:30;101251.78;;;8.85;100.00
55679;BME280;41573;51.446;-2.018;2022-09-25T08:21:03;101249.19;;;9.04;100.00
55679;BME280;41573;51.446;-2.018;2022-09-25T08:23:29;101240.34;;;9.24;100.00
55679;BME280;41573;51.446;-2.018;2022-09-25T08:25:55;101241.41;;;9.40;100.00
55679;BME280;41573;51.446;-2.018;2022-09-25T08:28:20;101246.63;;;9.62;100.00
55679;BME280;41573;51.446;-2.018;2022-09-25T08:30:47;101244.13;;;9.78;100.00
55679;BME280;41573;51.446;-2.018;2022-09-25T08:33:12;101248.81;;;9.92;100.00
55679;BME280;41573;51.446;-2.018;2022-09-25T08:35:38;101248.84;;;10.10;100.00
55679;BME280;41573;51.446;-2.018;2022-09-25T08:38:08;101249.06;;;10.24;100.00
55679;BME280;41573;51.446;-2.018;2022-09-25T08:41:02;101257.25;;;10.39;100.00
55679;BME280;41573;51.446;-2.018;2022-09-25T08:43:29;101246.78;;;10.53;100.00
55679;BME280;41573;51.446;-2.018;2022-09-25T08:45:55;101246.34;;;10.62;100.00
55679;BME280;41573;51.446;-2.018;2022-09-25T08:51:35;101251.00;;;10.94;100.00
55679;BME280;41573;51.446;-2.018;2022-09-25T08:54:03;101249.56;;;11.04;100.00
55679;BME280;41573;51.446;-2.018;2022-09-25T08:56:31;101250.97;;;11.11;100.00
55679;BME280;41573;51.446;-2.018;2022-09-25T09:02:18;101245.56;;;11.30;100.00
55679;BME280;41573;51.446;-2.018;2022-09-25T09:04:54;101246.63;;;11.44;100.00
55679;BME280;41573;51.446;-2.018;2022-09-25T09:07:39;101246.81;;;11.56;100.00
55679;BME280;41573;51.446;-2.018;2022-09-25T09:12:43;101235.16;;;11.75;100.00
55679;BME280;41573;51.446;-2.018;2022-09-25T09:15:39;101241.88;;;11.82;100.00
55679;BME280;41573;51.446;-2.018;2022-09-25T09:18:36;101225.03;;;11.98;100.00
55679;BME280;41573;51.446;-2.018;2022-09-25T09:21:19;101232.38;;;12.10;100.00
55679;BME280;41573;51.446;-2.018;2022-09-25T09:27:27;101236.53;;;12.46;100.00
55679;BME280;41573;51.446;-2.018;2022-09-25T09:49:47;101193.47;;;13.11;100.00
55679;BME280;41573;51.446;-2.018;2022-09-25T09:52:03;101185.19;;;13.31;100.00
55679;BME280;41573;51.446;-2.018;2022-09-25T09:54:51;101175.47;;;13.44;100.00
55679;BME280;41573;51.446;-2.018;2022-09-25T09:57:21;101174.50;;;13.59;100.00
55679;BME280;41573;51.446;-2.018;2022-09-25T10:02:35;101177.50;;;13.96;100.00
55679;BME280;41573;51.446;-2.018;2022-09-25T10:05:07;101179.91;;;14.14;100.00
55679;BME280;41573;51.446;-2.018;2022-09-25T10:07:35;101185.84;;;14.19;100.00
55679;BME280;41573;51.446;-2.018;2022-09-25T10:10:12;101179.88;;;14.28;100.00
55679;BME280;41573;51.446;-2.018;2022-09-25T10:12:42;101179.47;;;14.35;100.00
55679;BME280;41573;51.446;-2.018;2022-09-25T10:15:28;101174.25;;;14.46;100.00
55679;BME280;41573;51.446;-2.018;2022-09-25T10:17:57;101174.25;;;14.46;100.00
55679;BME280;41573;51.446;-2.018;2022-09-25T10:20:28;101165.56;;;14.55;100.00
55679;BME280;41573;51.446;-2.018;2022-09-25T10:22:57;101168.91;;;14.59;100.00
55679;BME280;41573;51.446;-2.018;2022-09-25T10:25:38;101168.53;;;14.65;100.00
55679;BME280;41573;51.446;-2.018;2022-09-25T10:28:27;101169.97;;;14.56;100.00
55679;BME280;41573;51.446;-2.018;2022-09-25T10:30:53;101174.47;;;14.43;100.00
55679;BME280;41573;51.446;-2.018;2022-09-25T10:33:21;101173.47;;;14.44;100.00
55679;BME280;41573;51.446;-2.018;2022-09-25T10:35:48;101169.00;;;14.44;100.00
55679;BME280;41573;51.446;-2.018;2022-09-25T10:38:36;101169.09;;;14.43;100.00
55679;BME280;41573;51.446;-2.018;2022-09-25T10:41:11;101161.38;;;14.51;100.00
55679;BME280;41573;51.446;-2.018;2022-09-25T10:43:54;101161.72;;;14.59;100.00
55679;BME280;41573;51.446;-2.018;2022-09-25T10:46:40;101151.00;;;14.59;100.00
55679;BME280;41573;51.446;-2.018;2022-09-25T10:49:26;101143.44;;;14.66;100.00
55679;BME280;41573;51.446;-2.018;2022-09-25T10:52:13;101146.56;;;14.73;100.00
55679;BME280;41573;51.446;-2.018;2022-09-25T10:54:39;101131.78;;;14.80;99.05
55679;BME280;41573;51.446;-2.018;2022-09-25T10:57:24;101129.09;;;14.93;93.30
55679;BME280;41573;51.446;-2.018;2022-09-25T10:59:58;101127.13;;;15.08;99.60
55679;BME280;41573;51.446;-2.018;2022-09-25T11:02:51;101110.19;;;15.20;90.91
55679;BME280;41573;51.446;-2.018;2022-09-25T11:05:19;101104.91;;;15.31;93.89
55679;BME280;41573;51.446;-2.018;2022-09-25T11:07:48;101104.56;;;15.36;94.43
55679;BME280;41573;51.446;-2.018;2022-09-25T11:10:28;101098.13;;;15.39;88.57
55679;BME280;41573;51.446;-2.018;2022-09-25T11:12:55;101091.81;;;15.27;88.98
55679;BME280;41573;51.446;-2.018;2022-09-25T11:15:25;101085.50;;;15.15;97.48
55679;BME280;41573;51.446;-2.018;2022-09-25T11:17:53;101073.72;;;15.05;89.65
55679;BME280;41573;51.446;-2.018;2022-09-25T11:23:29;101071.81;;;14.94;86.63
55679;BME280;41573;51.446;-2.018;2022-09-25T11:26:19;101069.97;;;14.94;92.05
55679;BME280;41573;51.446;-2.018;2022-09-25T11:28:56;101078.25;;;14.91;87.42
55679;BME280;41573;51.446;-2.018;2022-09-25T11:31:50;101070.94;;;14.93;81.21
55679;BME280;41573;51.446;-2.018;2022-09-25T11:37:34;101056.16;;;15.38;78.14
55679;BME280;41573;51.446;-2.018;2022-09-25T11:40:04;101060.50;;;15.51;76.50
55679;BME280;41573;51.446;-2.018;2022-09-25T11:43:16;101048.41;;;15.70;73.37
55679;BME280;41573;51.446;-2.018;2022-09-25T11:45:48;101041.91;;;15.85;72.77
55679;BME280;41573;51.446;-2.018;2022-09-25T11:50:48;101038.66;;;15.93;68.20
55679;BME280;41573;51.446;-2.018;2022-09-25T11:54:00;101041.69;;;15.89;71.58
55679;BME280;41573;51.446;-2.018;2022-09-25T12:02:02;101026.31;;;15.66;71.58
55679;BME280;41573;51.446;-2.018;2022-09-25T12:04:48;101022.44;;;15.71;71.11
55679;BME280;41573;51.446;-2.018;2022-09-25T12:07:40;101018.25;;;15.66;67.38
55679;BME280;41573;51.446;-2.018;2022-09-25T12:13:46;101015.56;;;15.66;69.32
55679;BME280;41573;51.446;-2.018;2022-09-25T12:16:05;101003.59;;;15.59;68.02
55679;BME280;41573;51.446;-2.018;2022-09-25T12:21:10;100994.84;;;15.44;64.25
55679;BME280;41573;51.446;-2.018;2022-09-25T12:29:41;100992.66;;;15.25;63.39
55679;BME280;41573;51.446;-2.018;2022-09-25T12:32:16;100989.97;;;15.25;61.38
55679;BME280;41573;51.446;-2.018;2022-09-25T12:34:58;100985.69;;;15.23;61.90
55679;BME280;41573;51.446;-2.018;2022-09-25T12:37:42;100997.91;;;15.27;62.13
55679;BME280;41573;51.446;-2.018;2022-09-25T12:40:24;100985.22;;;15.29;61.65
55679;BME280;41573;51.446;-2.018;2022-09-25T12:44:05;100982.59;;;15.40;64.22
55679;BME280;41573;51.446;-2.018;2022-09-25T12:46:25;100981.28;;;15.46;62.10
55679;BME280;41573;51.446;-2.018;2022-09-25T12:48:59;100966.91;;;15.47;60.83
55679;BME280;41573;51.446;-2.018;2022-09-25T12:53:58;100968.16;;;15.54;64.85
55679;BME280;41573;51.446;-2.018;2022-09-25T12:56:45;100957.19;;;15.57;62.67
55679;BME280;41573;51.446;-2.018;2022-09-25T12:59:22;100962.00;;;15.65;63.51
55679;BME280;41573;51.446;-2.018;2022-09-25T13:07:27;100953.53;;;15.58;63.11
55679;BME280;41573;51.446;-2.018;2022-09-25T13:09:56;100948.63;;;15.52;62.52
55679;BME280;41573;51.446;-2.018;2022-09-25T13:12:36;100952.19;;;15.52;63.85
55679;BME280;41573;51.446;-2.018;2022-09-25T13:15:05;100943.59;;;15.47;63.19
55679;BME280;41573;51.446;-2.018;2022-09-25T13:17:34;100937.75;;;15.42;62.29
55679;BME280;41573;51.446;-2.018;2022-09-25T13:22:51;100931.50;;;15.42;67.22
55679;BME280;41573;51.446;-2.018;2022-09-25T13:25:20;100928.56;;;15.45;68.78
55679;BME280;41573;51.446;-2.018;2022-09-25T13:27:46;100934.81;;;15.45;67.26
55679;BME280;41573;51.446;-2.018;2022-09-25T13:30:24;100936.44;;;15.48;67.15
55679;BME280;41573;51.446;-2.018;2022-09-25T13:32:52;100933.09;;;15.44;67.70
55679;BME280;41573;51.446;-2.018;2022-09-25T13:35:20;100924.44;;;15.41;67.96
55679;BME280;41573;51.446;-2.018;2022-09-25T13:37:48;100926.88;;;15.44;69.47
55679;BME280;41573;51.446;-2.018;2022-09-25T13:40:20;100925.16;;;15.43;69.09
55679;BME280;41573;51.446;-2.018;2022-09-25T13:43:24;100930.66;;;15.41;69.87
55679;BME280;41573;51.446;-2.018;2022-09-25T13:48:48;100936.44;;;15.24;72.75
55679;BME280;41573;51.446;-2.018;2022-09-25T14:01:40;100925.72;;;14.87;76.68
55679;BME280;41573;51.446;-2.018;2022-09-25T14:06:42;100923.13;;;14.85;80.35
55679;BME280;41573;51.446;-2.018;2022-09-25T14:09:11;100920.47;;;14.85;79.72
55679;BME280;41573;51.446;-2.018;2022-09-25T14:11:39;100919.38;;;14.88;77.73
55679;BME280;41573;51.446;-2.018;2022-09-25T14:14:08;100907.69;;;14.89;81.43
55679;BME280;41573;51.446;-2.018;2022-09-25T14:16:50;100907.94;;;14.86;81.50
55679;BME280;41573;51.446;-2.018;2022-09-25T14:19:20;100907.81;;;14.87;81.91
55679;BME280;41573;51.446;-2.018;2022-09-25T14:21:48;100906.31;;;14.83;81.32
55679;BME280;41573;51.446;-2.018;2022-09-25T14:24:24;100891.72;;;14.87;84.71
55679;BME280;41573;51.446;-2.018;2022-09-25T14:26:53;100885.28;;;14.90;81.72
55679;BME280;41573;51.446;-2.018;2022-09-25T14:29:24;100889.09;;;14.98;85.33
55679;BME280;41573;51.446;-2.018;2022-09-25T14:48:18;100865.44;;;15.28;77.36
55679;BME280;41573;51.446;-2.018;2022-09-25T14:50:48;100860.97;;;15.28;78.16
55679;BME280;41573;51.446;-2.018;2022-09-25T14:53:28;100854.72;;;15.28;77.73
55679;BME280;41573;51.446;-2.018;2022-09-25T14:55:55;100862.44;;;15.32;78.27
55679;BME280;41573;51.446;-2.018;2022-09-25T14:58:24;100858.75;;;15.33;79.74
55679;BME280;41573;51.446;-2.018;2022-09-25T15:00:54;100845.72;;;15.29;78.80
55679;BME280;41573;51.446;-2.018;2022-09-25T15:03:25;100840.34;;;15.29;80.09
55679;BME280;41573;51.446;-2.018;2022-09-25T15:05:52;100843.63;;;15.21;84.67
55679;BME280;41573;51.446;-2.018;2022-09-25T15:08:36;100833.97;;;15.19;92.07
55679;BME280;41573;51.446;-2.018;2022-09-25T15:11:10;100833.97;;;15.19;92.48
55679;BME280;41573;51.446;-2.018;2022-09-25T15:13:37;100831.69;;;15.25;87.70
55679;BME280;41573;51.446;-2.018;2022-09-25T15:16:04;100827.03;;;15.27;89.79
55679;BME280;41573;51.446;-2.018;2022-09-25T15:18:54;100820.47;;;15.31;87.48